createdAt,value
2023-01-11T00:01:13.199Z,79.97
2023-01-11T00:03:41.539Z,79.87
2023-01-11T00:06:12.336Z,80.02
2023-01-11T00:08:40.929Z,79.77
2023-01-11T00:11:16.355Z,79.75
2023-01-11T00:13:46.281Z,80.29
2023-01-11T00:16:15.463Z,80.40
2023-01-11T00:18:44.084Z,80.57
2023-01-11T00:21:12.401Z,80.35
2023-01-11T00:23:40.719Z,80.63
2023-01-11T00:26:13.436Z,80.26
2023-01-11T00:28:41.777Z,80.93
2023-01-11T00:31:10.604Z,80.45
2023-01-11T00:33:39.011Z,80.80
2023-01-11T00:36:07.629Z,80.15
2023-01-11T00:38:45.033Z,80.45
2023-01-11T00:41:33.201Z,80.65
2023-01-11T00:44:20.320Z,81.08
2023-01-11T00:47:06.669Z,81.20
2023-01-11T00:49:35.169Z,80.85
2023-01-11T00:52:06.455Z,81.02
2023-01-11T00:54:34.938Z,80.97
2023-01-11T00:57:03.368Z,80.84
2023-01-11T00:59:31.609Z,80.92
2023-01-11T01:01:59.950Z,81.08
2023-01-11T01:04:28.345Z,81.02
2023-01-11T01:06:56.769Z,80.75
2023-01-11T01:09:25.044Z,80.34
2023-01-11T01:11:53.642Z,80.19
2023-01-11T01:14:30.214Z,80.59
2023-01-11T01:17:09.896Z,81.00
2023-01-11T01:19:40.065Z,80.81
2023-01-11T01:22:09.223Z,81.01
2023-01-11T01:24:37.646Z,80.94
2023-01-11T01:27:05.961Z,80.43
2023-01-11T01:29:34.336Z,81.01
2023-01-11T01:32:02.588Z,80.84
2023-01-11T01:34:30.884Z,80.75
2023-01-11T01:36:59.238Z,81.07
2023-01-11T01:39:27.770Z,81.65
2023-01-11T01:41:56.127Z,81.35
2023-01-11T01:44:54.393Z,81.40
2023-01-11T01:47:40.153Z,80.86
2023-01-11T01:50:17.475Z,80.79
2023-01-11T01:52:51.301Z,81.31
2023-01-11T01:55:29.735Z,81.17
2023-01-11T01:58:00.323Z,81.32
2023-01-11T02:00:28.807Z,81.05
2023-01-11T02:03:00.439Z,81.04
2023-01-11T02:05:29.180Z,80.96
2023-01-11T02:08:00.828Z,80.89
2023-01-11T02:10:29.809Z,80.92
2023-01-11T02:13:11.389Z,80.91
2023-01-11T02:15:39.765Z,80.78
2023-01-11T02:18:13.653Z,81.16
2023-01-11T02:20:49.519Z,80.55
2023-01-11T02:23:37.123Z,80.58
2023-01-11T02:26:35.413Z,80.42
2023-01-11T02:29:32.098Z,80.25
2023-01-11T02:32:20.053Z,80.04
2023-01-11T02:35:04.708Z,80.00
2023-01-11T02:37:57.397Z,79.88
2023-01-11T02:40:48.614Z,79.47
2023-01-11T02:43:41.270Z,79.90
2023-01-11T02:46:18.523Z,79.55
2023-01-11T02:49:00.050Z,79.38
2023-01-11T02:51:39.900Z,80.00
2023-01-11T02:54:11.261Z,79.40
2023-01-11T02:56:44.409Z,79.92
2023-01-11T02:59:17.749Z,79.73
2023-01-11T03:01:52.411Z,79.74
2023-01-11T03:04:35.563Z,79.67
2023-01-11T03:07:28.790Z,79.99
2023-01-11T03:10:26.069Z,79.78
2023-01-11T03:13:12.680Z,80.14
2023-01-11T03:16:25.945Z,79.96
2023-01-11T03:18:54.343Z,79.89
2023-01-11T03:21:31.013Z,79.83
2023-01-11T03:24:17.073Z,80.30
2023-01-11T03:26:51.589Z,80.28
2023-01-11T03:29:47.794Z,80.23
2023-01-11T03:32:29.574Z,79.91
2023-01-11T03:35:12.871Z,79.65
2023-01-11T03:37:47.056Z,79.67
2023-01-11T03:40:26.820Z,79.96
2023-01-11T03:43:14.586Z,79.99
2023-01-11T03:45:51.764Z,79.66
2023-01-11T03:48:34.470Z,79.71
2023-01-11T03:51:04.272Z,79.83
2023-01-11T03:53:37.010Z,79.58
2023-01-11T03:56:10.534Z,79.78
2023-01-11T03:58:39.769Z,79.57
2023-01-11T04:01:08.903Z,79.56
2023-01-11T04:03:37.199Z,79.18
2023-01-11T04:06:06.141Z,79.50
2023-01-11T04:08:34.499Z,79.37
2023-01-11T04:11:05.643Z,79.47
2023-01-11T04:13:34.990Z,79.36
2023-01-11T04:16:03.576Z,79.49
2023-01-11T04:18:31.984Z,79.56
2023-01-11T04:21:00.436Z,79.25
2023-01-11T04:23:28.795Z,78.96
2023-01-11T04:25:57.053Z,79.19
2023-01-11T04:28:25.462Z,79.31
2023-01-11T04:30:53.807Z,79.27
2023-01-11T04:33:22.102Z,79.21
2023-01-11T04:35:51.149Z,79.03
2023-01-11T04:38:19.810Z,78.86
2023-01-11T04:40:49.416Z,78.94
2023-01-11T04:43:17.749Z,78.65
2023-01-11T04:45:46.128Z,78.90
2023-01-11T04:48:14.499Z,78.91
2023-01-11T04:50:42.813Z,78.65
2023-01-11T04:53:11.118Z,79.26
2023-01-11T04:55:39.590Z,78.81
2023-01-11T04:58:07.919Z,79.39
2023-01-11T05:00:36.202Z,79.19
2023-01-11T05:03:04.498Z,79.46
2023-01-11T05:05:32.876Z,79.41
2023-01-11T05:08:01.204Z,79.15
2023-01-11T05:10:29.508Z,79.61
2023-01-11T05:12:57.854Z,79.18
2023-01-11T05:15:26.282Z,79.37
2023-01-11T05:17:54.579Z,79.40
2023-01-11T05:20:22.914Z,79.12
2023-01-11T05:22:51.245Z,79.40
2023-01-11T05:25:19.625Z,79.32
2023-01-11T05:27:47.995Z,79.05
2023-01-11T05:30:16.563Z,79.23
2023-01-11T05:32:44.873Z,79.09
2023-01-11T05:35:13.333Z,78.90
2023-01-11T05:37:41.720Z,79.39
2023-01-11T05:40:10.686Z,79.47
2023-01-11T05:42:39.039Z,79.39
2023-01-11T05:45:26.337Z,79.55
2023-01-11T05:47:55.042Z,79.65
2023-01-11T05:50:23.390Z,79.47
2023-01-11T05:52:51.976Z,79.08
2023-01-11T05:55:20.648Z,79.38
2023-01-11T05:57:48.943Z,79.33
2023-01-11T06:00:17.678Z,79.41
2023-01-11T06:02:46.251Z,79.58
2023-01-11T06:05:14.634Z,79.23
2023-01-11T06:07:43.055Z,79.28
2023-01-11T06:10:12.130Z,79.37
2023-01-11T06:12:40.474Z,79.51
2023-01-11T06:15:09.421Z,79.87
2023-01-11T06:17:37.840Z,79.87
2023-01-11T06:20:06.722Z,79.54
2023-01-11T06:22:35.130Z,79.99
2023-01-11T06:25:03.446Z,80.09
2023-01-11T06:27:31.755Z,80.01
2023-01-11T06:30:00.129Z,80.08
2023-01-11T06:32:30.725Z,80.31
2023-01-11T06:34:59.034Z,80.13
2023-01-11T06:37:27.541Z,80.07
2023-01-11T06:39:55.952Z,80.13
2023-01-11T06:42:24.262Z,80.34
2023-01-11T06:44:52.563Z,80.28
2023-01-11T06:47:20.859Z,80.27
2023-01-11T06:49:49.158Z,80.47
2023-01-11T06:52:17.418Z,80.16
2023-01-11T06:54:45.870Z,80.14
2023-01-11T06:57:14.239Z,80.44
2023-01-11T06:59:44.256Z,80.43
2023-01-11T07:02:12.822Z,80.26
2023-01-11T07:04:41.099Z,80.56
2023-01-11T07:07:09.459Z,80.47
2023-01-11T07:09:37.846Z,80.19
2023-01-11T07:12:06.430Z,80.17
2023-01-11T07:14:34.860Z,80.11
2023-01-11T07:17:03.174Z,80.19
2023-01-11T07:19:31.442Z,80.61
2023-01-11T07:21:59.690Z,80.46
2023-01-11T07:24:28.118Z,80.24
2023-01-11T07:26:57.173Z,80.51
2023-01-11T07:29:25.579Z,80.10
2023-01-11T07:31:53.860Z,80.12
2023-01-11T07:34:22.178Z,80.10
2023-01-11T07:36:50.514Z,80.15
2023-01-11T07:39:18.796Z,79.98
2023-01-11T07:42:05.864Z,80.05
2023-01-11T07:44:34.235Z,80.27
2023-01-11T07:47:02.604Z,79.94
2023-01-11T07:49:30.999Z,79.85
2023-01-11T07:51:59.340Z,79.76
2023-01-11T07:54:27.765Z,80.20
2023-01-11T07:56:57.516Z,80.04
2023-01-11T07:59:25.929Z,80.26
2023-01-11T08:01:54.387Z,79.95
2023-01-11T08:04:22.669Z,79.69
2023-01-11T08:06:50.908Z,79.95
2023-01-11T08:09:19.199Z,79.58
2023-01-11T08:12:05.656Z,79.77
2023-01-11T08:14:42.935Z,79.67
2023-01-11T08:17:16.881Z,79.39
2023-01-11T08:19:45.291Z,79.31
2023-01-11T08:22:13.985Z,79.58
2023-01-11T08:24:42.636Z,79.66
2023-01-11T08:27:11.305Z,79.42
2023-01-11T08:29:40.793Z,79.15
2023-01-11T08:32:09.095Z,78.95
2023-01-11T08:34:37.771Z,78.53
2023-01-11T08:37:06.308Z,78.73
2023-01-11T08:39:34.836Z,78.59
2023-01-11T08:42:04.425Z,78.60
2023-01-11T08:44:34.678Z,78.36
2023-01-11T08:47:04.466Z,78.42
2023-01-11T08:49:32.860Z,78.64
2023-01-11T08:52:01.164Z,79.16
2023-01-11T08:54:29.574Z,78.89
2023-01-11T08:56:57.917Z,79.01
2023-01-11T08:59:26.208Z,78.65
2023-01-11T09:01:54.608Z,78.72
2023-01-11T09:04:25.550Z,78.82
2023-01-11T09:06:54.668Z,78.70
2023-01-11T09:09:23.504Z,78.51
2023-01-11T09:11:59.012Z,78.16
2023-01-11T09:14:28.921Z,78.06
2023-01-11T09:16:57.979Z,77.78
2023-01-11T09:19:26.939Z,77.76
2023-01-11T09:21:58.116Z,78.02
2023-01-11T09:24:26.479Z,77.82
2023-01-11T09:26:54.809Z,77.72
2023-01-11T09:29:23.243Z,77.93
2023-01-11T09:31:51.930Z,77.88
2023-01-11T09:34:21.826Z,77.91
2023-01-11T09:36:50.106Z,77.69
2023-01-11T09:39:21.326Z,77.56
2023-01-11T09:42:02.819Z,77.75
2023-01-11T09:44:33.884Z,77.78
2023-01-11T09:47:29.208Z,77.21
2023-01-11T09:49:59.570Z,76.80
2023-01-11T09:52:42.970Z,77.17
2023-01-11T09:55:26.120Z,76.86
2023-01-11T09:58:32.857Z,76.69
2023-01-11T10:01:31.944Z,76.69
2023-01-11T10:04:26.756Z,76.49
2023-01-11T10:07:32.895Z,76.72
2023-01-11T10:18:30.855Z,76.36
2023-01-11T10:19:40.614Z,76.39
2023-01-11T10:22:10.442Z,76.15
2023-01-11T10:25:11.804Z,76.47
2023-01-11T10:28:20.965Z,76.13
2023-01-11T10:31:01.464Z,76.28
2023-01-11T10:33:46.573Z,76.50
2023-01-11T10:37:32.027Z,76.33
2023-01-11T10:40:46.626Z,75.77
2023-01-11T10:43:23.495Z,76.22
2023-01-11T10:48:45.304Z,76.14
2023-01-11T10:51:36.431Z,75.67
2023-01-11T10:54:23.151Z,75.88
2023-01-11T10:57:01.708Z,75.50
2023-01-11T11:00:02.387Z,75.76
2023-01-11T11:02:59.338Z,75.78
2023-01-11T11:05:52.541Z,75.55
2023-01-11T11:08:41.165Z,75.80
2023-01-11T11:11:18.983Z,75.72
2023-01-11T11:14:19.497Z,75.52
2023-01-11T11:16:50.712Z,75.56
2023-01-11T11:19:23.476Z,75.66
2023-01-11T11:21:53.224Z,75.64
2023-01-11T11:24:28.799Z,75.39
2023-01-11T11:27:05.968Z,75.62
2023-01-11T11:29:43.209Z,75.46
2023-01-11T11:32:27.262Z,75.61
2023-01-11T11:34:55.721Z,75.26
2023-01-11T11:37:45.920Z,75.42
2023-01-11T11:40:37.175Z,75.03
2023-01-11T11:43:23.651Z,74.97
2023-01-11T11:45:59.848Z,74.73
2023-01-11T11:48:33.771Z,74.41
2023-01-11T11:51:08.008Z,74.76
2023-01-11T11:53:55.729Z,74.68
2023-01-11T11:56:27.256Z,74.62
2023-01-11T11:58:57.272Z,74.44
2023-01-11T12:01:35.808Z,74.65
2023-01-11T12:04:25.830Z,74.41
2023-01-11T12:07:08.053Z,74.47
2023-01-11T12:09:37.877Z,74.02
2023-01-11T12:12:06.680Z,74.44
2023-01-11T12:14:36.311Z,73.90
2023-01-11T12:17:27.365Z,74.25
2023-01-11T12:19:55.725Z,74.01
2023-01-11T12:22:30.008Z,74.01
2023-01-11T12:25:22.477Z,73.93
2023-01-11T12:28:21.380Z,74.34
2023-01-11T12:31:09.034Z,74.50
2023-01-11T12:33:49.583Z,74.22
2023-01-11T12:36:32.279Z,74.26
2023-01-11T12:39:22.615Z,74.45
2023-01-11T12:42:14.219Z,74.41
2023-01-11T12:45:09.592Z,74.05
2023-01-11T12:47:52.923Z,74.20
2023-01-11T12:50:27.052Z,74.48
2023-01-11T12:53:53.658Z,74.56
2023-01-11T12:57:04.382Z,74.78
2023-01-11T12:59:44.870Z,74.81
2023-01-11T13:02:34.457Z,74.97
2023-01-11T13:05:19.543Z,75.22
2023-01-11T13:08:19.645Z,75.16
2023-01-11T13:11:02.660Z,75.60
2023-01-11T13:13:56.531Z,75.70
2023-01-11T13:16:36.620Z,75.95
2023-01-11T13:19:14.396Z,76.38
2023-01-11T13:21:54.103Z,76.35
2023-01-11T13:24:28.858Z,76.42
2023-01-11T13:27:02.722Z,77.00
2023-01-11T13:29:35.873Z,77.08
2023-01-11T13:32:14.489Z,77.42
2023-01-11T13:34:47.460Z,77.14
2023-01-11T13:37:40.884Z,77.22
2023-01-11T13:40:20.961Z,77.58
2023-01-11T13:43:01.051Z,77.46
2023-01-11T13:45:36.988Z,77.78
2023-01-11T13:48:14.375Z,77.57
2023-01-11T13:51:21.432Z,77.86
2023-01-11T13:54:27.065Z,77.74
2023-01-11T13:57:06.065Z,78.16
2023-01-11T13:59:58.734Z,78.12
2023-01-11T14:02:48.778Z,77.92
2023-01-11T14:05:22.258Z,77.86
2023-01-11T14:08:16.267Z,77.83
2023-01-11T14:10:47.592Z,77.89
2023-01-11T14:13:51.953Z,78.05
2023-01-11T14:16:38.291Z,77.85
2023-01-11T14:19:25.854Z,77.98
2023-01-11T14:22:13.920Z,78.07
2023-01-11T14:24:59.303Z,78.02
2023-01-11T14:28:11.269Z,77.97
2023-01-11T14:31:28.532Z,77.73
2023-01-11T14:34:16.580Z,77.76
2023-01-11T14:37:08.910Z,77.85
2023-01-11T14:39:53.717Z,78.08
2023-01-11T14:42:46.236Z,77.66
2023-01-11T14:45:17.757Z,77.34
2023-01-11T14:48:24.240Z,77.56
2023-01-11T14:51:04.043Z,77.42
2023-01-11T14:53:38.840Z,77.60
2023-01-11T14:56:37.112Z,77.71
2023-01-11T14:59:29.035Z,77.65
2023-01-11T15:02:06.229Z,77.37
2023-01-11T15:04:40.266Z,77.27
2023-01-11T15:07:30.724Z,77.63
2023-01-11T15:10:00.947Z,77.13
2023-01-11T15:12:41.142Z,77.40
2023-01-11T15:15:18.173Z,77.04
2023-01-11T15:18:04.818Z,77.43
2023-01-11T15:20:34.589Z,77.46
2023-01-11T15:23:05.867Z,77.25
2023-01-11T15:25:36.684Z,76.93
2023-01-11T15:28:44.042Z,77.23
2023-01-11T15:31:39.940Z,77.36
2023-01-11T15:34:32.192Z,77.35
2023-01-11T15:37:08.809Z,76.88
2023-01-11T15:40:00.004Z,76.69
2023-01-11T15:42:55.219Z,76.70
2023-01-11T15:46:07.762Z,76.97
2023-01-11T15:48:42.040Z,76.42
2023-01-11T15:51:47.173Z,76.76
2023-01-11T15:54:44.312Z,76.70
2023-01-11T15:57:40.784Z,76.33
2023-01-11T16:00:36.280Z,76.68
2023-01-11T16:03:25.506Z,76.34
2023-01-11T16:06:05.179Z,76.33
2023-01-11T16:08:47.671Z,76.11
2023-01-11T16:11:50.665Z,76.04
2023-01-11T16:14:36.559Z,75.98
2023-01-11T16:17:12.170Z,76.05
2023-01-11T16:19:43.752Z,75.64
2023-01-11T16:22:23.259Z,75.81
2023-01-11T16:24:57.032Z,76.07
2023-01-11T16:27:36.418Z,75.47
2023-01-11T16:30:05.144Z,75.37
2023-01-11T16:32:33.655Z,75.60
2023-01-11T16:35:03.498Z,75.47
2023-01-11T16:37:45.939Z,75.74
2023-01-11T16:40:29.390Z,75.84
2023-01-11T16:43:23.254Z,75.68
2023-01-11T16:45:55.205Z,75.39
2023-01-11T16:48:29.060Z,75.11
2023-01-11T16:51:26.659Z,75.21
2023-01-11T16:54:00.044Z,75.52
2023-01-11T16:56:28.578Z,74.93
2023-01-11T16:59:15.420Z,74.92
2023-01-11T17:02:01.685Z,74.64
2023-01-11T17:04:37.166Z,74.80
2023-01-11T17:07:23.225Z,74.70
2023-01-11T17:09:51.860Z,75.16
2023-01-11T17:12:27.580Z,75.03
2023-01-11T17:15:18.726Z,75.28
2023-01-11T17:17:47.610Z,74.80
2023-01-11T17:20:23.117Z,74.32
2023-01-11T17:22:54.650Z,74.45
2023-01-11T17:25:44.113Z,74.66
2023-01-11T17:28:20.377Z,74.44
2023-01-11T17:30:52.121Z,74.63
2023-01-11T17:33:29.235Z,74.21
2023-01-11T17:35:58.174Z,74.14
2023-01-11T17:38:28.797Z,74.42
2023-01-11T17:40:57.750Z,74.56
2023-01-11T17:43:49.007Z,74.31
2023-01-11T17:46:25.600Z,74.34
2023-01-11T17:48:56.936Z,74.22
2023-01-11T17:51:33.191Z,73.49
2023-01-11T17:54:01.908Z,74.01
2023-01-11T17:56:42.667Z,73.89
2023-01-11T17:59:22.364Z,74.03
2023-01-11T18:02:20.754Z,74.01
2023-01-11T18:05:00.517Z,73.89
2023-01-11T18:07:28.863Z,73.79
2023-01-11T18:10:03.166Z,73.45
2023-01-11T18:12:35.325Z,73.78
2023-01-11T18:15:07.418Z,73.99
2023-01-11T18:17:39.907Z,73.74
2023-01-11T18:20:33.507Z,73.58
2023-01-11T18:23:13.006Z,73.90
2023-01-11T18:25:41.443Z,73.35
2023-01-11T18:28:31.610Z,73.94
2023-01-11T18:31:02.557Z,73.63
2023-01-11T18:33:34.130Z,73.55
2023-01-11T18:36:05.875Z,73.66
2023-01-11T18:38:36.978Z,73.77
2023-01-11T18:41:28.723Z,73.51
2023-01-11T18:43:57.403Z,73.38
2023-01-11T18:46:25.788Z,73.66
2023-01-11T18:48:54.276Z,73.82
2023-01-11T18:51:34.449Z,73.64
2023-01-11T18:54:02.811Z,73.66
2023-01-11T18:56:33.341Z,73.40
2023-01-11T18:59:01.618Z,73.49
2023-01-11T19:01:35.261Z,73.53
2023-01-11T19:04:11.108Z,73.69
2023-01-11T19:06:39.477Z,73.91
2023-01-11T19:09:07.782Z,74.19
2023-01-11T19:11:36.529Z,74.44
2023-01-11T19:14:04.795Z,74.24
2023-01-11T19:16:33.095Z,74.69
2023-01-11T19:19:01.406Z,74.53
2023-01-11T19:21:29.730Z,74.94
2023-01-11T19:23:59.690Z,74.76
2023-01-11T19:26:28.762Z,74.96
2023-01-11T19:28:57.104Z,74.72
2023-01-11T19:31:25.631Z,75.09
2023-01-11T19:33:54.094Z,75.21
2023-01-11T19:36:22.455Z,74.99
2023-01-11T19:38:53.266Z,75.34
2023-01-11T19:41:21.775Z,75.10
2023-01-11T19:43:50.190Z,74.87
2023-01-11T19:46:30.726Z,75.33
2023-01-11T19:49:00.080Z,75.07
2023-01-11T19:51:28.364Z,75.57
2023-01-11T19:53:56.650Z,75.53
2023-01-11T19:56:25.109Z,75.43
2023-01-11T19:58:53.508Z,75.71
2023-01-11T20:01:21.843Z,75.48
2023-01-11T20:03:50.209Z,76.00
2023-01-11T20:06:18.580Z,75.79
2023-01-11T20:08:46.955Z,75.83
2023-01-11T20:11:16.816Z,75.87
2023-01-11T20:13:51.295Z,76.03
2023-01-11T20:16:21.861Z,76.33
2023-01-11T20:18:55.047Z,76.52
2023-01-11T20:21:25.755Z,76.21
2023-01-11T20:23:54.114Z,76.56
2023-01-11T20:26:22.374Z,76.36
2023-01-11T20:28:54.257Z,76.29
2023-01-11T20:31:28.752Z,76.07
2023-01-11T20:33:57.382Z,76.43
2023-01-11T20:36:26.798Z,76.17
2023-01-11T20:38:56.607Z,76.13
2023-01-11T20:41:45.416Z,76.23
2023-01-11T20:44:18.357Z,76.45
2023-01-11T20:46:48.529Z,76.23
2023-01-11T20:49:18.157Z,76.50
2023-01-11T20:51:47.809Z,76.40
2023-01-11T20:54:16.614Z,76.31
2023-01-11T20:56:47.856Z,76.12
2023-01-11T20:59:20.713Z,76.12
2023-01-11T21:01:50.718Z,76.61
2023-01-11T21:04:19.947Z,76.50
2023-01-11T21:06:49.334Z,76.45
2023-01-11T21:09:19.389Z,76.54
2023-01-11T21:11:54.684Z,76.58
2023-01-11T21:14:23.933Z,76.44
2023-01-11T21:16:55.726Z,76.69
2023-01-11T21:19:24.274Z,77.08
2023-01-11T21:21:52.733Z,76.85
2023-01-11T21:24:21.737Z,77.17
2023-01-11T21:26:50.121Z,76.91
2023-01-11T21:29:18.481Z,76.89
2023-01-11T21:31:47.486Z,77.13
2023-01-11T21:34:16.321Z,77.32
2023-01-11T21:36:45.161Z,77.15
2023-01-11T21:39:16.393Z,77.52
2023-01-11T21:41:59.904Z,77.72
2023-01-11T21:44:34.271Z,77.86
2023-01-11T21:47:07.368Z,77.59
2023-01-11T21:49:35.736Z,78.23
2023-01-11T21:52:04.001Z,78.02
2023-01-11T21:54:32.364Z,78.00
2023-01-11T21:57:00.673Z,78.38
2023-01-11T21:59:31.056Z,78.46
2023-01-11T22:01:59.356Z,78.32
2023-01-11T22:04:27.660Z,78.30
2023-01-11T22:06:58.266Z,78.41
2023-01-11T22:09:29.052Z,78.64
2023-01-11T22:11:57.427Z,78.79
2023-01-11T22:14:25.884Z,78.80
2023-01-11T22:16:54.596Z,78.70
2023-01-11T22:19:23.335Z,79.05
2023-01-11T22:21:51.684Z,79.00
2023-01-11T22:24:20.013Z,79.12
2023-01-11T22:26:48.370Z,79.12
2023-01-11T22:29:16.788Z,79.10
2023-01-11T22:31:51.996Z,78.99
2023-01-11T22:34:20.758Z,78.71
2023-01-11T22:36:49.854Z,78.89
2023-01-11T22:39:20.406Z,79.11
2023-01-11T22:41:50.899Z,79.09
2023-01-11T22:44:19.663Z,78.68
2023-01-11T22:46:48.531Z,78.84
2023-01-11T22:49:18.262Z,78.47
2023-01-11T22:51:47.107Z,79.08
2023-01-11T22:54:16.074Z,78.96
2023-01-11T22:56:44.558Z,78.97
2023-01-11T22:59:12.964Z,78.93
2023-01-11T23:01:43.018Z,79.01
2023-01-11T23:04:15.139Z,79.04
2023-01-11T23:06:44.117Z,79.03
2023-01-11T23:09:16.831Z,78.90
2023-01-11T23:12:04.430Z,79.05
2023-01-11T23:14:33.842Z,79.03
2023-01-11T23:17:07.905Z,78.75
2023-01-11T23:19:38.339Z,78.75
2023-01-11T23:22:08.047Z,78.61
2023-01-11T23:24:38.123Z,78.67
2023-01-11T23:27:06.580Z,78.66
2023-01-11T23:29:35.109Z,78.62
2023-01-11T23:32:03.554Z,78.65
2023-01-11T23:34:31.918Z,78.97
2023-01-11T23:37:00.230Z,78.97
2023-01-11T23:39:28.769Z,78.62
2023-01-11T23:42:15.433Z,78.65
2023-01-11T23:44:43.868Z,78.93
2023-01-11T23:47:22.855Z,78.81
2023-01-11T23:49:53.115Z,79.10
2023-01-11T23:52:23.638Z,78.86
2023-01-11T23:54:52.306Z,78.89
2023-01-11T23:57:24.886Z,79.33
2023-01-11T23:59:53.441Z,79.19
